Weather reports worldwide

Advertisment
Bridgefoot, United Kingdom (99137): temperature & dewpoint: 19.09.2018 22:00:00 - 25.09.2018 22:00:00 (BST)Bridgefoot, United Kingdom (99137): precipitation: 19.09.2018 22:00:00 - 25.09.2018 22:00:00 (BST)
Date & Time tt [°C] td [°C] rr [mm]
25.09.2018 22:00:00 12,2 11,5 1,2
25.09.2018 21:00:00 11,9 11,5 2,0
25.09.2018 20:00:00 11,7 11,1 1,2
25.09.2018 19:00:00 12,3 10,2 0,0
25.09.2018 18:00:00 13,2 9,5 0,0
25.09.2018 17:00:00 13,2 9,2 0,0
25.09.2018 16:00:00 13,8 9,4 0,0
25.09.2018 15:00:00 14,3 9,4 0,0
25.09.2018 14:00:00 13,5 8,7 0,0
25.09.2018 13:00:00 13,6 9,8 0,0
25.09.2018 12:00:00 12,9 8,9 0,0
25.09.2018 11:00:00 13,2 9,0 0,0
25.09.2018 10:00:00 11,6 7,7 0,0
25.09.2018 09:00:00 10,3 7,2 0,0
25.09.2018 08:00:00 7,2 6,4 0,0
25.09.2018 07:00:00 5,7 5,2 0,0
25.09.2018 06:00:00 6,4 5,7 0,0
25.09.2018 05:00:00 6,6 5,7 0,0
25.09.2018 04:00:00 6,9 6,0 0,0
25.09.2018 03:00:00 7,6 6,4 0,0
25.09.2018 02:00:00 8,8 7,1 0,0
25.09.2018 01:00:00 8,5 6,8 0,0
25.09.2018 00:00:00 8,1 6,2 0,0
24.09.2018 23:00:00 10,3 7,3 0,0
24.09.2018 22:00:00 11,0 8,3 0,0
24.09.2018 21:00:00 10,6 8,2 0,0
24.09.2018 20:00:00 11,0 8,1 0,0
24.09.2018 19:00:00 11,4 8,1 0,0
24.09.2018 18:00:00 11,9 8,0 0,0
24.09.2018 17:00:00 12,3 7,6 0,0
24.09.2018 16:00:00 12,6 8,2 0,0
24.09.2018 15:00:00 11,0 9,1 1,8
24.09.2018 14:00:00 12,5 7,7 0,0
24.09.2018 13:00:00 13,6 7,3 0,0
24.09.2018 12:00:00 12,8 7,8 0,0
24.09.2018 11:00:00 11,9 8,0 0,0
24.09.2018 10:00:00 10,2 7,4 0,0
24.09.2018 09:00:00 5,1 5,1 0,0
24.09.2018 08:00:00 2,1 1,9 0,0
24.09.2018 07:00:00 1,5 1,1 0,0
24.09.2018 06:00:00 1,4 0,8 0,0
24.09.2018 05:00:00 2,3 1,5 0,0
24.09.2018 04:00:00 4,1 2,8 0,0
24.09.2018 03:00:00 6,2 3,7 0,0
24.09.2018 02:00:00 7,9 4,4 0,0
24.09.2018 01:00:00 7,8 5,0 0,0
24.09.2018 00:00:00 8,5 4,5 0,0
23.09.2018 23:00:00 9,1 4,8 0,0
23.09.2018 22:00:00 9,1 4,9 0,0
23.09.2018 21:00:00 9,4 4,8 0,0
23.09.2018 20:00:00 9,7 4,9 0,0
23.09.2018 19:00:00 11,0 4,9 0,0
23.09.2018 18:00:00 12,3 4,4 0,0
23.09.2018 17:00:00 13,5 5,8 0,0
23.09.2018 16:00:00 13,3 5,4 0,0
23.09.2018 15:00:00 13,3 5,3 0,0
23.09.2018 14:00:00 12,3 5,5 0,0
23.09.2018 13:00:00 12,7 6,2 0,0
23.09.2018 12:00:00 11,5 6,7 0,0
23.09.2018 11:00:00 10,2 7,1 0,0
23.09.2018 10:00:00 7,2 7,2 0,0
23.09.2018 09:00:00 4,0 4,0 0,0
23.09.2018 08:00:00 2,8 2,8 0,0
23.09.2018 07:00:00 2,6 2,6 0,0
23.09.2018 06:00:00 2,1 2,0 0,0
23.09.2018 05:00:00 2,0 1,9 0,0
23.09.2018 04:00:00 1,8 1,6 0,0
23.09.2018 03:00:00 2,1 1,9 0,0
23.09.2018 02:00:00 2,4 1,9 0,0
23.09.2018 01:00:00 3,5 3,1 0,0
23.09.2018 00:00:00 3,9 3,6 0,0
22.09.2018 23:00:00 4,4 3,8 0,0
22.09.2018 22:00:00 5,6 4,7 0,0
22.09.2018 21:00:00 6,6 5,7 0,0
22.09.2018 20:00:00 8,0 6,4 0,0
22.09.2018 19:00:00 10,3 5,9 0,0
22.09.2018 18:00:00 11,3 6,2 0,0
22.09.2018 17:00:00 12,1 7,4 0,0
22.09.2018 16:00:00 12,5 6,9 0,0
22.09.2018 15:00:00 12,8 6,7 0,0
22.09.2018 14:00:00 12,3 7,0 0,0
22.09.2018 13:00:00 11,7 6,5 0,0
22.09.2018 12:00:00 11,4 6,3 0,0
22.09.2018 11:00:00 11,4 6,9 0,0
22.09.2018 10:00:00 10,8 6,1 0,0
22.09.2018 09:00:00 10,4 6,5 0,0
22.09.2018 08:00:00 10,0 6,1 0,0
22.09.2018 07:00:00 9,6 5,8 0,0
22.09.2018 06:00:00 9,5 5,3 0,0
22.09.2018 05:00:00 9,8 5,0 0,0
22.09.2018 04:00:00 10,0 5,2 0,0
22.09.2018 03:00:00 10,0 4,4 0,0
22.09.2018 02:00:00 10,1 5,1 0,0
22.09.2018 01:00:00 10,5 5,8 0,0
22.09.2018 00:00:00 10,4 4,8 0,0
21.09.2018 23:00:00 10,2 6,6 0,0
21.09.2018 22:00:00 10,8 7,0 0,2
21.09.2018 21:00:00 10,4 7,0 0,0
21.09.2018 20:00:00 11,5 7,0 0,0
21.09.2018 19:00:00 11,2 6,5 0,0
21.09.2018 18:00:00 12,4 6,5 0,0
21.09.2018 17:00:00 13,5 8,8 0,0
21.09.2018 16:00:00 11,8 7,8 0,0
21.09.2018 15:00:00 11,5 7,4 0,0
21.09.2018 14:00:00 11,5 8,0 0,0
21.09.2018 13:00:00 9,8 8,5 0,6
21.09.2018 12:00:00 10,2 7,8 0,0
21.09.2018 11:00:00 11,4 7,4 0,0
21.09.2018 10:00:00 10,0 6,8 0,0
21.09.2018 09:00:00 9,9 6,8 0,0
21.09.2018 08:00:00 9,4 6,6 0,0
21.09.2018 07:00:00 8,5 6,7 0,4
21.09.2018 06:00:00 8,6 7,0 0,2
21.09.2018 05:00:00 7,7 6,7 0,6
21.09.2018 04:00:00 7,1 6,1 1,4
21.09.2018 03:00:00 6,9 6,2 3,8
21.09.2018 02:00:00 6,5 6,1 5,0
21.09.2018 01:00:00 6,6 6,2 4,6
21.09.2018 00:00:00 6,8 6,3 0,0
20.09.2018 23:00:00 7,2 6,8 1,0
20.09.2018 22:00:00 8,3 8,0 4,4
20.09.2018 21:00:00 8,5 8,2 1,8
20.09.2018 20:00:00 9,1 8,3 0,2
20.09.2018 19:00:00 9,8 8,0 0,0
20.09.2018 18:00:00 10,3 8,3 0,2
20.09.2018 17:00:00 10,7 8,8 0,8
20.09.2018 16:00:00 11,7 8,7 0,0
20.09.2018 15:00:00 12,6 8,1 0,0
20.09.2018 14:00:00 12,6 7,7 0,0
20.09.2018 13:00:00 12,5 7,4 0,0
20.09.2018 12:00:00 12,8 7,7 0,0
20.09.2018 11:00:00 13,0 7,5 0,0
20.09.2018 10:00:00 12,2 7,8 0,0
20.09.2018 09:00:00 11,6 7,4 0,0
20.09.2018 08:00:00 11,2 7,3 0,0
20.09.2018 07:00:00 10,9 6,5 0,0
20.09.2018 06:00:00 11,4 7,1 0,0
20.09.2018 05:00:00 11,8 7,0 0,0
20.09.2018 04:00:00 11,8 7,1 0,0
20.09.2018 03:00:00 11,9 6,4 0,0
20.09.2018 02:00:00 12,1 6,8 0,0
20.09.2018 01:00:00 12,0 6,6 0,0
20.09.2018 00:00:00 12,0 6,5 0,0
19.09.2018 23:00:00 12,2 6,3 0,0
19.09.2018 22:00:00 12,7 6,1 0,0

tt = temperature
td = dewpoint
rr = precipitation

Next stations